Time;durP1;ratioP1;P1;durP2;ratioP2;P2;SDS_P1;SDS_P2;PMS_P1;PMS_P2;Temp;Humidity;BMP_temperature;BMP_pressure;BME280_temperature;BME280_humidity;BME280_pressure;Samples;Min_cycle;Max_cycle;Signal;HPM_P1;HPM_P2
2024/03/15 00:00:23;;;;;;;0.50;0.50;;;;;;;10.31;91.69;96460.41;29395;218;63004;-90
2024/03/15 00:00:54;;;;;;;0.50;0.50;;;;;;;10.30;91.55;96468.84;29395;212;63009;-90
2024/03/15 00:01:25;;;;;;;0.50;0.50;;;;;;;10.28;91.56;96471.87;29395;212;63004;-91
2024/03/15 00:01:58;;;;;;;0.50;0.50;;;;;;;10.25;91.64;96467.03;29395;225;63008;-90
2024/03/15 00:02:30;;;;;;;0.50;0.50;;;;;;;10.25;91.66;96466.25;29395;234;63004;-89
2024/03/15 00:03:02;;;;;;;0.50;0.50;;;;;;;10.23;92.32;96468.44;29395;228;63008;-91
2024/03/15 00:03:33;;;;;;;0.50;0.50;;;;;;;10.22;92.29;96466.84;29395;202;63005;-90
2024/03/15 00:04:05;;;;;;;0.50;0.50;;;;;;;10.21;92.33;96465.22;29395;252;63009;-89
2024/03/15 00:04:37;;;;;;;0.50;0.50;;;;;;;10.21;92.29;96470.66;29394;252;64009;-90
2024/03/15 00:05:10;;;;;;;0.50;0.50;;;;;;;10.23;92.33;96460.31;29395;224;63009;-90
2024/03/15 00:05:43;;;;;;;0.50;0.50;;;;;;;10.24;92.05;96464.63;29395;199;63014;-89
2024/03/15 00:06:17;;;;;;;0.50;0.50;;;;;;;10.24;92.32;96467.34;29395;247;63009;-88
2024/03/15 00:06:48;;;;;;;0.50;0.50;;;;;;;10.22;92.19;96462.22;29395;218;63004;-88
2024/03/15 00:07:20;;;;;;;0.50;0.50;;;;;;;10.22;92.28;96464.13;29395;235;63009;-89
2024/03/15 00:07:52;;;;;;;0.50;0.50;;;;;;;10.23;92.38;96463.03;29395;209;63004;-88
2024/03/15 00:08:23;;;;;;;0.50;0.50;;;;;;;10.23;92.48;96463.81;29395;303;63009;-87
2024/03/15 00:08:55;;;;;;;0.50;0.50;;;;;;;10.22;92.20;96464.13;29394;248;64004;-88
2024/03/15 00:09:26;;;;;;;0.50;0.50;;;;;;;10.23;92.25;96463.03;29395;240;63008;-89
2024/03/15 00:10:00;;;;;;;0.50;0.50;;;;;;;10.20;92.43;96469.84;29394;246;64009;-88
2024/03/15 00:10:32;;;;;;;0.50;0.50;;;;;;;10.18;92.05;96466.59;29395;272;63014;-88
2024/03/15 00:11:03;;;;;;;0.50;0.50;;;;;;;10.17;92.27;96458.75;29395;227;63005;-88
2024/03/15 00:11:34;;;;;;;0.50;0.50;;;;;;;10.16;92.49;96455.25;29395;202;63009;-88
2024/03/15 00:12:06;;;;;;;0.43;0.43;;;;;;;10.17;92.32;96464.19;29395;323;63005;-88
2024/03/15 00:12:38;;;;;;;0.50;0.50;;;;;;;10.17;92.75;96466.91;29395;206;63009;-88
2024/03/15 00:13:11;;;;;;;0.50;0.50;;;;;;;10.15;92.50;96464.47;29395;245;63005;-88
2024/03/15 00:13:44;;;;;;;0.50;0.50;;;;;;;10.15;92.61;96463.69;29395;252;63009;-88
2024/03/15 00:14:16;;;;;;;0.50;0.50;;;;;;;10.14;92.61;96456.66;29395;232;63004;-89
2024/03/15 00:14:47;;;;;;;0.50;0.50;;;;;;;10.13;92.68;96458.56;29395;240;63009;-88
2024/03/15 00:15:19;;;;;;;0.50;0.50;;;;;;;10.15;92.77;96460.97;29394;209;64009;-88
2024/03/15 00:15:51;;;;;;;0.50;0.50;;;;;;;10.15;92.72;96460.97;29395;209;63009;-89
2024/03/15 00:16:23;;;;;;;0.50;0.50;;;;;;;10.14;92.61;96459.38;29395;223;63004;-87
2024/03/15 00:16:55;;;;;;;0.50;0.50;;;;;;;10.18;92.72;96463.09;29395;217;63004;-88
2024/03/15 00:17:27;;;;;;;0.50;0.50;;;;;;;10.17;92.46;96465.00;29395;237;63004;-89
2024/03/15 00:17:58;;;;;;;0.50;0.50;;;;;;;10.17;92.58;96466.91;29395;322;63009;-88
2024/03/15 00:18:29;;;;;;;0.50;0.50;;;;;;;10.16;92.31;96468.81;29395;242;63005;-88
2024/03/15 00:19:02;;;;;;;0.50;0.50;;;;;;;10.15;92.47;96460.97;29395;254;63009;-88
2024/03/15 00:19:35;;;;;;;0.45;0.45;;;;;;;10.14;92.17;96470.19;29395;225;63005;-88
2024/03/15 00:20:07;;;;;;;0.50;0.50;;;;;;;10.13;92.58;96463.19;29395;204;63009;-87
2024/03/15 00:20:39;;;;;;;0.50;0.50;;;;;;;10.13;92.73;96463.19;29394;239;64020;-89
2024/03/15 00:21:15;;;;;;;0.50;0.50;;;;;;;10.14;92.60;96460.16;29395;231;63009;-90
2024/03/15 00:21:48;;;;;;;0.50;0.50;;;;;;;10.14;92.75;96465.59;29395;200;63004;-90
2024/03/15 00:22:21;;;;;;;0.50;0.50;;;;;;;10.14;92.88;96464.78;29395;216;63009;-90
2024/03/15 00:22:53;;;;;;;0.50;0.50;;;;;;;10.13;92.66;96460.47;29395;218;63004;-90
2024/03/15 00:23:24;;;;;;;0.50;0.50;;;;;;;10.12;92.84;96467.00;29395;239;63009;-89
2024/03/15 00:23:57;;;;;;;0.50;0.50;;;;;;;10.11;92.56;96465.37;29395;212;63004;-91
2024/03/15 00:24:29;;;;;;;0.50;0.50;;;;;;;10.09;92.66;96458.34;29395;207;63008;-91
2024/03/15 00:25:01;;;;;;;0.50;0.50;;;;;;;10.11;92.82;96459.97;29395;225;63004;-88
2024/03/15 00:25:33;;;;;;;0.50;0.50;;;;;;;10.10;92.77;96464.56;29395;202;63009;-89
2024/03/15 00:26:04;;;;;;;0.50;0.50;;;;;;;10.11;92.59;96462.66;29394;197;64009;-88
2024/03/15 00:26:36;;;;;;;0.50;0.50;;;;;;;10.08;92.91;96456.75;29395;197;63009;-87
2024/03/15 00:27:07;;;;;;;0.50;0.50;;;;;;;10.11;92.66;96459.97;29395;216;63005;-88
2024/03/15 00:27:38;;;;;;;0.50;0.50;;;;;;;10.11;92.74;96465.37;29395;236;63009;-88
2024/03/15 00:28:10;;;;;;;0.50;0.50;;;;;;;10.10;92.46;96459.16;29395;236;63005;-89
2024/03/15 00:28:41;;;;;;;0.50;0.50;;;;;;;10.11;92.60;96457.25;29395;199;63009;-88
2024/03/15 00:29:13;;;;;;;0.50;0.50;;;;;;;10.09;92.42;96463.78;29395;238;63012;-88
2024/03/15 00:29:45;;;;;;;0.50;0.50;;;;;;;10.09;92.82;96452.94;29395;199;63009;-88
2024/03/15 00:30:16;;;;;;;0.50;0.50;;;;;;;10.10;92.64;96464.56;29395;205;63004;-87
2024/03/15 00:30:49;;;;;;;0.50;0.50;;;;;;;10.07;92.88;96463.25;29395;243;63022;-88
2024/03/15 00:31:20;;;;;;;0.50;0.50;;;;;;;10.06;93.00;96455.44;29394;227;64009;-88
2024/03/15 00:31:52;;;;;;;0.50;0.50;;;;;;;10.05;92.91;96465.47;29395;294;63008;-88
2024/03/15 00:32:25;;;;;;;0.50;0.50;;;;;;;10.04;92.94;96455.75;29395;209;63004;-89
2024/03/15 00:32:57;;;;;;;0.50;0.50;;;;;;;10.05;93.29;96459.25;29395;197;63009;-88
2024/03/15 00:33:29;;;;;;;0.50;0.50;;;;;;;10.07;93.26;96465.97;29395;232;63005;-89
2024/03/15 00:34:00;;;;;;;0.50;0.50;;;;;;;10.08;92.52;96462.16;29395;212;63009;-89
2024/03/15 00:34:31;;;;;;;0.50;0.50;;;;;;;10.09;92.54;96458.34;29395;222;63005;-89
2024/03/15 00:35:04;;;;;;;0.50;0.50;;;;;;;10.10;92.72;96459.16;29395;239;63009;-87
2024/03/15 00:35:35;;;;;;;0.50;0.50;;;;;;;10.09;92.92;96466.47;29395;226;63008;-87
2024/03/15 00:36:07;;;;;;;0.50;0.50;;;;;;;10.09;92.85;96457.53;29395;231;63009;-88
2024/03/15 00:36:38;;;;;;;0.50;0.50;;;;;;;10.09;93.17;96458.34;29394;202;64009;-87
2024/03/15 00:37:09;;;;;;;0.50;0.50;;;;;;;10.08;93.13;96459.44;29395;220;63009;-87
2024/03/15 00:37:41;;;;;;;0.50;0.50;;;;;;;10.08;92.96;96461.34;29395;200;63018;-90
2024/03/15 00:38:12;;;;;;;0.50;0.50;;;;;;;10.07;92.95;96460.56;29395;230;63009;-89
2024/03/15 00:38:43;;;;;;;0.50;0.50;;;;;;;10.07;92.55;96460.56;29395;209;63004;-89
2024/03/15 00:39:15;;;;;;;0.50;0.50;;;;;;;10.07;92.54;96457.03;29395;220;63012;-88
2024/03/15 00:39:46;;;;;;;0.50;0.50;;;;;;;10.06;92.90;96464.37;29394;213;64008;-88
2024/03/15 00:40:17;;;;;;;0.50;0.50;;;;;;;10.05;92.94;96454.63;29395;205;63009;-88
2024/03/15 00:40:49;;;;;;;0.50;0.50;;;;;;;10.04;92.67;96455.75;29395;211;63005;-88
2024/03/15 00:41:20;;;;;;;0.50;0.50;;;;;;;10.04;92.71;96452.25;29395;210;63009;-89
2024/03/15 00:41:52;;;;;;;0.50;0.50;;;;;;;10.05;92.83;96451.91;29395;233;63005;-88
2024/03/15 00:42:23;;;;;;;0.50;0.50;;;;;;;10.05;92.67;96457.34;29395;206;63020;-89
2024/03/15 00:42:55;;;;;;;3.62;3.42;;;;;;;10.06;92.27;96458.94;29395;304;63005;-87
2024/03/15 00:43:27;;;;;;;0.50;0.50;;;;;;;10.06;92.31;96458.94;29395;210;63009;-88
2024/03/15 00:43:58;;;;;;;0.50;0.50;;;;;;;10.06;92.17;96458.16;29395;240;63005;-89
2024/03/15 00:44:30;;;;;;;0.50;0.50;;;;;;;10.06;92.49;96458.94;29395;260;63009;-88
2024/03/15 00:45:03;;;;;;;0.50;0.50;;;;;;;10.09;92.38;96455.63;29394;228;64009;-88
2024/03/15 00:45:38;;;;;;;0.50;0.50;;;;;;;10.11;92.18;96454.53;29395;206;63013;-90
2024/03/15 00:46:09;;;;;;;0.50;0.50;;;;;;;10.11;92.27;96455.34;29395;276;63004;-91
2024/03/15 00:46:41;;;;;;;0.50;0.50;;;;;;;10.11;92.19;96454.53;29395;210;63009;-91
2024/03/15 00:47:12;;;;;;;0.50;0.50;;;;;;;10.09;91.91;96452.94;29395;218;63004;-90
2024/03/15 00:47:44;;;;;;;0.50;0.50;;;;;;;10.09;92.14;96461.06;29395;198;63026;-91
2024/03/15 00:48:15;;;;;;;0.50;0.50;;;;;;;10.08;92.22;96451.31;29395;230;63005;-91
2024/03/15 00:48:46;;;;;;;0.50;0.50;;;;;;;10.08;92.31;96456.75;29395;203;63009;-90
2024/03/15 00:49:18;;;;;;;0.50;0.50;;;;;;;10.08;92.27;96456.75;29395;202;63005;-89
2024/03/15 00:49:49;;;;;;;0.50;0.50;;;;;;;10.07;92.57;96459.75;29395;213;63009;-90
2024/03/15 00:50:21;;;;;;;0.50;0.50;;;;;;;10.05;92.59;96456.53;29394;214;64009;-90
2024/03/15 00:50:54;;;;;;;0.50;0.50;;;;;;;10.03;92.69;96459.56;29395;214;63009;-90
2024/03/15 00:51:25;;;;;;;0.50;0.50;;;;;;;10.04;92.42;96461.19;29395;205;63010;-92
2024/03/15 00:51:57;;;;;;;0.50;0.50;;;;;;;10.06;92.46;96452.72;29395;246;63009;-89
2024/03/15 00:52:29;;;;;;;0.50;0.50;;;;;;;10.05;92.30;96457.34;29395;242;63004;-90
2024/03/15 00:53:00;;;;;;;0.50;0.50;;;;;;;10.06;92.34;96456.25;29395;251;63009;-91
2024/03/15 00:53:32;;;;;;;0.50;0.50;;;;;;;10.06;92.36;96452.72;29395;267;63004;-89
2024/03/15 00:54:04;;;;;;;0.50;0.50;;;;;;;10.05;92.49;96457.34;29395;197;63008;-90
2024/03/15 00:54:36;;;;;;;0.50;0.50;;;;;;;10.04;92.66;96455.75;29395;313;63005;-90
2024/03/15 00:55:08;;;;;;;0.50;0.50;;;;;;;10.03;92.67;96459.56;29395;213;63009;-90
2024/03/15 00:55:40;;;;;;;0.50;0.50;;;;;;;10.02;92.97;96457.16;29394;202;64009;-91
2024/03/15 00:56:12;;;;;;;0.50;0.50;;;;;;;10.02;92.54;96457.97;29395;255;63009;-89
2024/03/15 00:56:43;;;;;;;0.50;0.50;;;;;;;10.03;92.61;96459.56;29395;199;63005;-91
2024/03/15 00:57:14;;;;;;;0.50;0.50;;;;;;;10.02;92.97;96457.97;29395;249;63009;-90
2024/03/15 00:57:45;;;;;;;0.50;0.50;;;;;;;10.04;92.64;96454.97;29395;211;63005;-91
2024/03/15 00:58:18;;;;;;;0.50;0.50;;;;;;;10.04;92.65;96461.19;29395;250;63009;-90
2024/03/15 00:58:50;;;;;;;0.50;0.50;;;;;;;10.04;92.84;96460.38;29395;218;63004;-89
2024/03/15 00:59:21;;;;;;;0.50;0.50;;;;;;;10.04;92.75;96454.97;29395;217;63009;-90
2024/03/15 00:59:53;;;;;;;0.50;0.50;;;;;;;10.03;92.58;96456.87;29395;261;63004;-89
2024/03/15 01:00:25;;;;;;;0.50;0.50;;;;;;;10.03;92.96;96459.56;29395;241;63009;-91
2024/03/15 01:00:57;;;;;;;0.50;0.50;;;;;;;10.03;92.71;96462.28;29394;205;64009;-90
2024/03/15 01:01:29;;;;;;;0.50;0.50;;;;;;;10.05;92.87;96462.75;29395;324;63026;-91
2024/03/15 01:02:00;;;;;;;0.50;0.50;;;;;;;10.05;92.44;96457.34;29395;235;63005;-89
2024/03/15 01:02:31;;;;;;;0.50;0.50;;;;;;;10.08;92.52;96450.53;29395;197;63009;-93
2024/03/15 01:03:03;;;;;;;0.50;0.50;;;;;;;10.10;92.27;96453.72;29395;267;63005;-89
2024/03/15 01:03:35;;;;;;;0.50;0.50;;;;;;;10.09;92.22;96461.06;29395;207;63009;-89
2024/03/15 01:04:06;;;;;;;0.50;0.50;;;;;;;10.08;92.13;96456.75;29395;233;63010;-90
2024/03/15 01:04:37;;;;;;;0.50;0.50;;;;;;;10.06;92.54;96456.25;29395;211;63009;-88
2024/03/15 01:05:09;;;;;;;0.50;0.50;;;;;;;10.05;92.76;96454.63;29395;234;63005;-90
2024/03/15 01:05:40;;;;;;;0.50;0.50;;;;;;;10.03;92.52;96459.56;29395;214;63009;-90
2024/03/15 01:06:15;;;;;;;0.50;0.50;;;;;;;10.03;92.80;96448.72;29394;244;64009;-89
2024/03/15 01:06:47;;;;;;;0.50;0.50;;;;;;;10.02;92.71;96457.16;29395;236;63026;-90
2024/03/15 01:07:20;;;;;;;0.50;0.50;;;;;;;10.04;92.34;96454.97;29395;223;63004;-89
2024/03/15 01:07:54;;;;;;;0.50;0.50;;;;;;;10.03;92.53;96454.16;29395;206;63009;-90
2024/03/15 01:08:26;;;;;;;0.50;0.50;;;;;;;10.05;92.19;96456.53;29395;212;63004;-90
2024/03/15 01:08:57;;;;;;;0.50;0.50;;;;;;;10.05;92.31;96451.91;29395;218;63008;-91
2024/03/15 01:09:30;;;;;;;0.50;0.50;;;;;;;10.06;92.17;96455.44;29395;212;63004;-89
2024/03/15 01:10:01;;;;;;;0.50;0.50;;;;;;;10.05;92.44;96454.63;29395;204;63017;-89
2024/03/15 01:10:32;;;;;;;0.50;0.50;;;;;;;10.04;92.43;96450.34;29395;216;63005;-90
2024/03/15 01:11:03;;;;;;;0.50;0.50;;;;;;;10.04;92.28;96452.25;29395;203;63009;-89
2024/03/15 01:11:35;;;;;;;0.50;0.50;;;;;;;10.03;92.39;96454.16;29394;409;64009;-89
2024/03/15 01:12:06;;;;;;;0.50;0.50;;;;;;;10.03;92.53;96453.34;29394;250;64009;-89
2024/03/15 01:12:38;;;;;;;0.50;0.50;;;;;;;9.99;92.85;96453.12;29395;204;63005;-91
2024/03/15 01:13:10;;;;;;;0.50;0.50;;;;;;;9.98;92.94;96448.81;29395;227;63009;-90
2024/03/15 01:13:43;;;;;;;0.52;0.52;;;;;;;9.96;92.83;96451.03;29395;234;63004;-89
2024/03/15 01:14:14;;;;;;;0.50;0.50;;;;;;;9.96;92.71;96448.31;29395;202;63009;-90
2024/03/15 01:14:45;;;;;;;0.50;0.50;;;;;;;9.97;92.69;96452.62;29395;203;63004;-91
2024/03/15 01:15:17;;;;;;;0.50;0.50;;;;;;;9.98;93.01;96456.97;29395;204;63009;-90
2024/03/15 01:15:48;;;;;;;0.50;0.50;;;;;;;9.99;92.73;96445.00;29395;204;63004;-89
2024/03/15 01:16:19;;;;;;;0.50;0.50;;;;;;;10.00;92.71;96449.31;29395;242;63008;-88
2024/03/15 01:16:51;;;;;;;0.50;0.50;;;;;;;10.02;92.53;96444.41;29394;236;64008;-88
2024/03/15 01:17:22;;;;;;;0.50;0.50;;;;;;;10.02;92.31;96449.84;29395;208;63009;-88
2024/03/15 01:17:53;;;;;;;0.50;0.50;;;;;;;10.03;92.47;96453.34;29395;199;63005;-87
2024/03/15 01:18:25;;;;;;;0.50;0.50;;;;;;;10.02;92.23;96444.41;29395;224;63009;-88
2024/03/15 01:18:56;;;;;;;0.50;0.50;;;;;;;10.02;92.09;96447.13;29395;230;63005;-90
2024/03/15 01:19:32;;;;;;;0.50;0.50;;;;;;;10.01;92.23;96440.09;29395;229;63009;-90
2024/03/15 01:20:09;;;;;;;0.50;0.50;;;;;;;10.01;92.30;96445.50;29395;220;63005;-89
2024/03/15 01:20:40;;;;;;;0.50;0.50;;;;;;;10.03;92.41;96443.31;29395;339;63009;-89
2024/03/15 01:21:11;;;;;;;0.50;0.50;;;;;;;10.04;92.30;96439.50;29395;222;63005;-90
2024/03/15 01:21:42;;;;;;;0.50;0.50;;;;;;;10.07;92.10;96444.28;29395;202;63009;-89
2024/03/15 01:22:17;;;;;;;0.50;0.50;;;;;;;10.08;91.70;96436.97;29394;212;64009;-89
2024/03/15 01:22:49;;;;;;;0.50;0.50;;;;;;;10.11;91.73;96440.97;29395;244;63009;-90
2024/03/15 01:23:20;;;;;;;0.50;0.50;;;;;;;10.09;91.58;96436.66;29395;198;63004;-90
2024/03/15 01:23:52;;;;;;;0.50;0.50;;;;;;;10.10;91.72;96440.19;29395;216;63008;-89
2024/03/15 01:24:23;;;;;;;0.68;0.68;;;;;;;10.10;91.49;96445.59;29395;202;63004;-90
2024/03/15 01:24:55;;;;;;;0.50;0.50;;;;;;;10.11;91.68;96440.97;29395;204;63009;-90
2024/03/15 01:25:26;;;;;;;0.50;0.50;;;;;;;10.09;91.29;96439.38;29395;228;63005;-89
2024/03/15 01:25:59;;;;;;;0.50;0.50;;;;;;;10.08;91.52;96445.09;29395;279;63009;-89
2024/03/15 01:26:30;;;;;;;0.50;0.50;;;;;;;10.06;91.67;96437.25;29395;200;63005;-87
2024/03/15 01:27:02;;;;;;;0.50;0.50;;;;;;;10.06;91.43;96437.25;29395;214;63009;-88
2024/03/15 01:27:33;;;;;;;0.50;0.50;;;;;;;10.08;91.43;96447.81;29394;203;64009;-88
2024/03/15 01:28:06;;;;;;;0.50;0.50;;;;;;;10.06;91.47;96437.25;29395;221;63009;-88
2024/03/15 01:28:39;;;;;;;0.50;0.50;;;;;;;10.06;91.61;96434.56;29395;218;63005;-89
2024/03/15 01:29:10;;;;;;;0.50;0.50;;;;;;;10.05;91.67;96441.06;29395;228;63009;-87
2024/03/15 01:29:41;;;;;;;0.50;0.50;;;;;;;10.04;91.39;96439.50;29395;220;63004;-88
2024/03/15 01:30:13;;;;;;;0.50;0.50;;;;;;;10.05;91.36;96438.38;29395;239;63009;-88
2024/03/15 01:30:45;;;;;;;0.50;0.50;;;;;;;10.06;91.38;96442.69;29395;203;63004;-88
2024/03/15 01:31:17;;;;;;;0.50;0.50;;;;;;;10.08;91.04;96435.06;29395;210;63009;-88
2024/03/15 01:31:49;;;;;;;0.50;0.50;;;;;;;10.10;90.79;96437.47;29395;272;63004;-88
2024/03/15 01:32:22;;;;;;;0.50;0.50;;;;;;;10.09;91.28;96436.66;29395;212;63009;-88
2024/03/15 01:32:53;;;;;;;0.50;0.50;;;;;;;10.08;91.00;96434.25;29394;205;64009;-91
2024/03/15 01:33:26;;;;;;;0.50;0.50;;;;;;;10.06;91.20;96434.56;29395;205;63009;-91
2024/03/15 01:33:57;;;;;;;0.50;0.50;;;;;;;10.06;91.14;96431.84;29395;224;63005;-88
2024/03/15 01:34:28;;;;;;;0.50;0.50;;;;;;;10.05;91.34;96434.84;29395;205;63009;-90
2024/03/15 01:34:59;;;;;;;0.50;0.50;;;;;;;10.05;91.28;96435.66;29395;222;63005;-89
2024/03/15 01:35:33;;;;;;;0.50;0.50;;;;;;;10.06;91.28;96431.84;29394;215;64013;-88
2024/03/15 01:36:05;;;;;;;0.50;0.50;;;;;;;10.08;90.86;96435.06;29395;202;63005;-87
2024/03/15 01:36:36;;;;;;;0.50;0.50;;;;;;;10.08;90.85;96432.34;29395;202;63009;-87
2024/03/15 01:37:08;;;;;;;0.50;0.50;;;;;;;10.07;90.84;96433.44;29395;202;63004;-88
2024/03/15 01:37:41;;;;;;;0.50;0.50;;;;;;;10.09;90.95;96431.25;29395;234;63009;-89
2024/03/15 01:38:12;;;;;;;0.50;0.50;;;;;;;10.12;91.00;96431.75;29395;267;63004;-92
2024/03/15 01:38:44;;;;;;;0.60;0.60;;;;;;;10.12;91.06;96431.75;29395;242;63009;-89
2024/03/15 01:39:15;;;;;;;0.50;0.50;;;;;;;10.11;90.92;96425.53;29395;229;63004;-90
2024/03/15 01:39:48;;;;;;;0.50;0.50;;;;;;;10.11;91.10;96438.28;29395;362;63009;-90
2024/03/15 01:40:21;;;;;;;0.50;0.50;;;;;;;10.09;90.80;96425.81;29395;312;63005;-90
2024/03/15 01:40:52;;;;;;;0.50;0.50;;;;;;;10.11;90.93;96425.53;29394;205;64014;-89
2024/03/15 01:41:24;;;;;;;0.50;0.50;;;;;;;10.13;90.87;96433.34;29395;235;63005;-90
2024/03/15 01:41:55;;;;;;;0.50;0.50;;;;;;;10.13;90.85;96428.75;29395;212;63009;-89
2024/03/15 01:42:26;;;;;;;0.50;0.50;;;;;;;10.16;90.29;96428.13;29395;219;63005;-91
2024/03/15 01:42:58;;;;;;;0.50;0.50;;;;;;;10.15;90.18;96423.00;29395;204;63009;-90
2024/03/15 01:43:29;;;;;;;0.50;0.50;;;;;;;10.17;90.27;96427.03;29395;206;63004;-89
2024/03/15 01:44:01;;;;;;;0.50;0.50;;;;;;;10.18;90.22;96425.13;29395;197;63009;-88
2024/03/15 01:44:52;;;;;;;0.50;0.50;;;;;;;10.16;90.24;96421.91;29395;249;63004;-88
2024/03/15 01:45:24;;;;;;;0.50;0.50;;;;;;;10.16;90.34;96428.13;29417;228;63009;-89
2024/03/15 01:45:56;;;;;;;0.50;0.50;;;;;;;10.21;89.73;96421.84;29394;202;64008;-89
2024/03/15 01:46:27;;;;;;;0.50;0.50;;;;;;;10.22;90.11;96426.97;29395;225;63008;-90
2024/03/15 01:46:59;;;;;;;0.50;0.50;;;;;;;10.20;90.02;96421.03;29395;215;63004;-91
2024/03/15 01:47:31;;;;;;;0.50;0.50;;;;;;;10.21;90.27;96424.56;29395;197;63009;-90
2024/03/15 01:48:03;;;;;;;0.50;0.50;;;;;;;10.20;90.13;96420.25;29395;246;63005;-91
2024/03/15 01:48:36;;;;;;;0.50;0.50;;;;;;;10.19;90.06;96424.03;29395;274;63026;-90
2024/03/15 01:49:09;;;;;;;0.50;0.50;;;;;;;10.18;90.10;96417.78;29395;216;63005;-91
2024/03/15 01:49:41;;;;;;;0.50;0.50;;;;;;;10.18;90.23;96417.00;29395;199;63009;-90
2024/03/15 01:50:13;;;;;;;0.50;0.50;;;;;;;10.18;90.14;96425.13;29395;241;63018;-89
2024/03/15 01:50:47;;;;;;;0.50;0.50;;;;;;;10.17;89.96;96415.38;29395;209;63009;-87
2024/03/15 01:51:19;;;;;;;0.50;0.50;;;;;;;10.17;89.84;96420.81;29394;219;64009;-89
2024/03/15 01:51:50;;;;;;;0.50;0.50;;;;;;;10.15;89.91;96423.00;29394;223;64013;-89
2024/03/15 01:52:22;;;;;;;0.50;0.50;;;;;;;10.15;89.90;96423.00;29395;206;63004;-90
2024/03/15 01:52:56;;;;;;;0.50;0.50;;;;;;;10.13;89.95;96419.81;29395;206;63009;-90
2024/03/15 01:53:28;;;;;;;0.50;0.50;;;;;;;10.13;89.86;96419.81;29395;197;63004;-91
2024/03/15 01:54:00;;;;;;;0.50;0.50;;;;;;;10.13;89.87;96422.50;29395;210;63009;-89
2024/03/15 01:54:31;;;;;;;0.50;0.50;;;;;;;10.13;89.61;96417.91;29395;209;63005;-90
2024/03/15 01:55:03;;;;;;;0.50;0.50;;;;;;;10.11;89.80;96411.16;29395;214;63009;-89
2024/03/15 01:55:35;;;;;;;0.50;0.50;;;;;;;10.11;89.82;96419.28;29395;246;63005;-91
2024/03/15 01:56:06;;;;;;;0.50;0.50;;;;;;;10.10;90.19;96418.50;29395;264;63009;-89
2024/03/15 01:56:37;;;;;;;0.50;0.50;;;;;;;10.09;89.85;96420.41;29395;223;63005;-91
2024/03/15 01:57:09;;;;;;;0.50;0.50;;;;;;;10.09;90.00;96412.28;29394;205;64013;-89
2024/03/15 01:57:40;;;;;;;0.50;0.50;;;;;;;10.09;89.94;96412.28;29395;234;63005;-90
2024/03/15 01:58:12;;;;;;;0.50;0.50;;;;;;;10.09;90.00;96414.97;29394;240;64013;-90
2024/03/15 01:58:43;;;;;;;0.50;0.50;;;;;;;10.11;89.76;96416.59;29395;233;63004;-90
2024/03/15 01:59:15;;;;;;;0.50;0.50;;;;;;;10.12;89.74;96410.06;29395;221;63009;-90
2024/03/15 01:59:49;;;;;;;0.50;0.50;;;;;;;10.11;89.60;96411.16;29395;202;63016;-89
2024/03/15 02:00:20;;;;;;;0.50;0.50;;;;;;;10.08;89.87;96413.38;29395;276;63009;-89
2024/03/15 02:00:51;;;;;;;0.50;0.50;;;;;;;10.07;90.07;96411.75;29395;212;63004;-89
2024/03/15 02:01:22;;;;;;;0.50;0.50;;;;;;;10.11;90.43;96416.59;29395;307;63008;-90
2024/03/15 02:02:13;;;;;;;0.50;0.50;;;;;;;10.12;90.06;96412.78;29395;199;63005;-90
2024/03/15 02:02:44;;;;;;;0.50;0.50;;;;;;;10.09;90.04;96419.59;29395;202;63009;-91
2024/03/15 02:03:16;;;;;;;0.50;0.50;;;;;;;10.09;90.13;96414.97;29394;212;64009;-89
2024/03/15 02:03:47;;;;;;;0.50;0.50;;;;;;;10.09;90.18;96417.69;29395;199;63009;-90
2024/03/15 02:04:18;;;;;;;0.50;0.50;;;;;;;10.09;90.17;96414.97;29395;238;63005;-89
2024/03/15 02:04:55;;;;;;;0.50;0.50;;;;;;;10.09;90.06;96416.88;29395;199;63009;-89
2024/03/15 02:05:27;;;;;;;0.50;0.50;;;;;;;10.09;89.89;96420.41;29395;203;63005;-91
2024/03/15 02:05:58;;;;;;;0.50;0.50;;;;;;;10.08;89.96;96418.78;29395;257;63023;-90
2024/03/15 02:06:30;;;;;;;0.50;0.50;;;;;;;10.07;90.06;96422.59;29395;198;63004;-91
2024/03/15 02:07:03;;;;;;;0.50;0.50;;;;;;;10.07;89.98;96416.38;29395;214;63009;-90
2024/03/15 02:07:34;;;;;;;0.50;0.50;;;;;;;10.07;89.79;96416.38;29395;295;63004;-91
2024/03/15 02:08:08;;;;;;;0.50;0.50;;;;;;;10.05;89.97;96413.16;29395;196;63009;-90
2024/03/15 02:08:41;;;;;;;0.50;0.50;;;;;;;10.04;90.03;96412.41;29394;205;64008;-90
2024/03/15 02:09:12;;;;;;;0.50;0.50;;;;;;;10.03;90.33;96420.81;29395;227;63009;-89
2024/03/15 02:09:47;;;;;;;0.50;0.50;;;;;;;10.02;90.47;96411.87;29395;220;63005;-91
2024/03/15 02:10:20;;;;;;;0.50;0.50;;;;;;;10.03;90.61;96420.81;29395;229;63009;-89
2024/03/15 02:10:52;;;;;;;0.50;0.50;;;;;;;10.01;90.45;96410.28;29395;241;63005;-89
2024/03/15 02:11:24;;;;;;;0.50;0.50;;;;;;;9.99;90.39;96414.41;29395;222;63009;-90
2024/03/15 02:11:56;;;;;;;0.50;0.50;;;;;;;9.97;90.71;96413.88;29395;197;63014;-90
2024/03/15 02:12:27;;;;;;;0.45;0.45;;;;;;;9.96;90.61;96415.78;29395;228;63009;-90
2024/03/15 02:12:58;;;;;;;0.50;0.50;;;;;;;9.95;90.96;96414.19;29395;218;63005;-90
2024/03/15 02:13:30;;;;;;;0.50;0.50;;;;;;;9.93;90.77;96410.16;29395;206;63009;-89
2024/03/15 02:14:01;;;;;;;0.50;0.50;;;;;;;9.92;91.11;96414.78;29394;218;64009;-89
2024/03/15 02:14:32;;;;;;;0.50;0.50;;;;;;;9.92;90.93;96417.50;29395;249;63009;-90
2024/03/15 02:15:08;;;;;;;0.50;0.50;;;;;;;9.90;90.90;96414.28;29395;205;63004;-90
2024/03/15 02:15:39;;;;;;;0.50;0.50;;;;;;;9.88;91.16;96413.78;29395;202;63009;-90
2024/03/15 02:16:14;;;;;;;0.50;0.50;;;;;;;9.87;91.10;96412.16;29395;198;63014;-91
2024/03/15 02:16:46;;;;;;;0.50;0.50;;;;;;;9.84;91.51;96412.75;29395;209;63009;-89
2024/03/15 02:17:18;;;;;;;0.50;0.50;;;;;;;9.83;91.58;96416.56;29395;292;63005;-90
2024/03/15 02:17:54;;;;;;;0.50;0.50;;;;;;;9.82;91.65;96414.97;29395;253;63024;-90
2024/03/15 02:18:25;;;;;;;0.50;0.50;;;;;;;9.82;91.73;96414.16;29395;228;63005;-89
2024/03/15 02:18:59;;;;;;;0.50;0.50;;;;;;;9.80;91.65;96411.75;29395;219;63009;-89
2024/03/15 02:19:31;;;;;;;0.50;0.50;;;;;;;9.82;91.56;96414.97;29394;206;64009;-90
2024/03/15 02:20:06;;;;;;;0.50;0.50;;;;;;;9.81;91.61;96416.06;29395;237;63009;-90
2024/03/15 02:20:37;;;;;;;0.50;0.50;;;;;;;9.80;91.60;96414.47;29395;218;63005;-91
2024/03/15 02:21:08;;;;;;;0.50;0.50;;;;;;;9.81;91.71;96415.25;29395;205;63016;-89
2024/03/15 02:21:40;;;;;;;0.50;0.50;;;;;;;9.80;91.88;96411.75;29395;347;63004;-89
2024/03/15 02:22:11;;;;;;;0.50;0.50;;;;;;;9.80;91.92;96414.47;29395;207;63009;-91
2024/03/15 02:22:44;;;;;;;0.50;0.50;;;;;;;9.79;91.94;96412.84;29395;199;63004;-91
2024/03/15 02:23:15;;;;;;;0.50;0.50;;;;;;;9.80;91.95;96417.16;29395;254;63009;-89
2024/03/15 02:23:46;;;;;;;0.50;0.50;;;;;;;9.79;92.21;96407.44;29395;259;63004;-89
2024/03/15 02:24:18;;;;;;;0.50;0.50;;;;;;;9.81;92.04;96412.56;29395;238;63009;-91
2024/03/15 02:24:49;;;;;;;0.50;0.50;;;;;;;9.80;92.02;96406.34;29394;203;64009;-90
2024/03/15 02:25:20;;;;;;;0.50;0.50;;;;;;;9.79;91.83;96412.84;29395;214;63009;-90
2024/03/15 02:25:51;;;;;;;0.50;0.50;;;;;;;9.78;91.94;96408.53;29395;224;63005;-90
2024/03/15 02:26:23;;;;;;;0.50;0.50;;;;;;;9.77;92.14;96408.84;29395;224;63009;-91
2024/03/15 02:26:54;;;;;;;0.50;0.50;;;;;;;9.77;92.27;96412.34;29395;213;63005;-90
2024/03/15 02:27:28;;;;;;;0.50;0.50;;;;;;;9.78;92.02;96408.53;29395;214;63019;-90
2024/03/15 02:28:00;;;;;;;0.50;0.50;;;;;;;9.80;91.78;96409.03;29395;260;63005;-89
2024/03/15 02:28:31;;;;;;;0.50;0.50;;;;;;;9.78;91.62;96403.13;29395;214;63009;-89
2024/03/15 02:29:02;;;;;;;0.50;0.50;;;;;;;9.77;91.68;96409.63;29395;212;63004;-89
2024/03/15 02:29:35;;;;;;;0.50;0.50;;;;;;;9.76;91.73;96408.03;29395;249;63009;-90
2024/03/15 02:30:09;;;;;;;0.50;0.50;;;;;;;9.75;91.40;96409.13;29394;219;64009;-90
2024/03/15 02:30:40;;;;;;;0.50;0.50;;;;;;;9.72;91.59;96415.16;29395;202;63009;-90
2024/03/15 02:31:13;;;;;;;0.50;0.50;;;;;;;9.70;91.56;96411.97;29395;244;63004;-89
2024/03/15 02:31:46;;;;;;;0.50;0.50;;;;;;;9.69;91.61;96408.44;29395;269;63009;-90
2024/03/15 02:32:18;;;;;;;0.50;0.50;;;;;;;9.69;91.82;96416.56;29395;246;63005;-90
2024/03/15 02:32:49;;;;;;;0.50;0.50;;;;;;;9.69;91.73;96410.34;29395;209;63009;-91
2024/03/15 02:33:21;;;;;;;0.50;0.50;;;;;;;9.67;92.04;96415.25;29395;230;63005;-90